Palestine, Ohio
Current Conditions -  °F | °C
As of 10:55 PM on Sunday 23 Nov 2014 (Local Time) from KVES Reporting Station
Overcast Overcast  
Wind Chill: 54°   Ceiling: 700
Heat Index: 54°   Visibility: 7mi
Dew Point: 54°   Wind: 16mph
Humidity: 100%   Direction: 160°SSE
Pressure: 29.24"   Gusts: 28mph
Location:  40.05°N, 84.74°W
Report Text: KVES 240355Z AUTO 16014G24KT 7SM OVC007 12/12 A2924 RMK AO2 P0003
Loading
Personal Weather Stations






























Interactive Weather Map New forecast layout! Learn more

10-Day Weather Forecast

Advertisements
Track Severe Weather on mobile